AirNav   Air Wisconsin Up To $57,000 Bonus
 
 1870 users online  

VT62 Catamount Airfield
Cabot, Vermont, USA

GOING TO CABOT?


FAA INFORMATION EFFECTIVE 02 JANUARY 2020

Location

FAA Identifier: VT62
Lat/Long: 44-23-25.3200N 072-21-02.3000W
44-23.422000N 072-21.038333W
44.3903667,-72.3506389
(estimated)
Elevation: 1350 ft. / 411 m (estimated)
Variation: 16W (1995)
From city: 2 miles W of CABOT, VT
Time zone: UTC -5 (UTC -4 during Daylight Saving Time)
Zip code: 05658

Airport Operations

Airport use: Private use. Permission required prior to landing
Activation date: 09/1998
Control tower: no
ARTCC: BOSTON CENTER
FSS: BURLINGTON FLIGHT SERVICE STATION
Attendance: UNATNDD
Wind indicator: yes
Segmented circle: no

Airport Communications

WX ASOS at MVL (14 nm NW): 135.625 (802-888-7934)
WX ASOS at MPV (14 nm SW): 132.675 (802-229-2037)
WX AWOS-3 at CDA (18 nm NE): 119.275 (802-626-4532)

Nearby radio navigation aids

VOR radial/distance  VOR name  Freq  Var
MPVr029/18.8MONTPELIER VOR/DME110.8016W
BTVr106/35.7BURLINGTON VOR/DME117.5015W

 
NDB name  Hdg/Dist  Freq  Var  ID
MAHN290/28.638617WGMA --. -- .-

Airport Services

Runway Information

Runway 4/22

Dimensions: 1390 x 40 ft. / 424 x 12 m
Surface: turf/gravel
RUNWAY 4  RUNWAY 22
Traffic pattern: leftleft

Airport Ownership and Management from official FAA records

Ownership: Privately-owned
Owner: WILLIAM AMEDEN
1009 DUCHARME ROAD
CABOT, VT 05647
Phone 802-563-2351
Manager: WILLIAM AMEDEN
1009 DUCHARME ROAD
CABOT, VT 05647
Phone 802-563-2351

Airport Operational Statistics

Aircraft based on the field: 2
Single engine airplanes: 2
    

Additional Remarks

FOR CD CTC BOSTON ARTCC AT 603-879-6859.

Instrument Procedures

There are no published instrument procedures at VT62.

Some nearby airports with instrument procedures:

KMVL - Morrisville-Stowe State Airport (14 nm NW)
KMPV - Edward F Knapp State Airport (14 nm SW)
KCDA - Caledonia County Airport (18 nm NE)
5B9 - Dean Memorial Airport (24 nm SE)
KEFK - Northeast Kingdom International Airport (30 nm N)
 
Loc | Ops | Rwys | IFR | FBO | Links
Com | Nav | Svcs | Stats | Notes
Area around VT62 (Catamount Airfield)
 
Road maps at: MapQuest Bing Google
 
Aerial photo
No photo
 
Sectional chart

 
Airport distance calculator
Flying to Catamount Airfield? Find the distance to fly.

From to VT62

Sunrise and sunset
Times for 23-Jan-2020
 Local
(UTC-5)
 Zulu
(UTC)
Morning civil twilight06:4611:46
Sunrise07:1812:18
Sunset16:4521:45
Evening civil twilight17:1722:17

Current date and time
Zulu (UTC)  23-Jan-2020 20:40:23
Local (UTC-5)  23-Jan-2020 15:40:23
 
METAR
KMVL 
13nm NW 
231954Z AUTO 00000KT 10SM CLR 01/M08 A3029 RMK AO2 SLP271 T00061078
K1V4 
14nm E 
231954Z AUTO M01/M08 A3028 RMK AO1 SLP272 T10111083
KMPV 
15nm SW 
231951Z AUTO 00000KT 10SM CLR 00/M08 A3030 RMK AO2 SLP282 T00001083
KCDA 
18nm NE 
232015Z AUTO 00000KT 10SM CLR M01/M09 A3029 RMK AO2 T10151093
TAF
KMPV 
15nm SW 
231720Z 2318/2418 VRB03KT P6SM BKN180
NOTAMs
Click for the latest NOTAMs
NOTAMs are issued by the DoD/FAA and will open in a separate window not controlled by AirNav.

 

 
 

Would you like to see your business listed on this page?

 If your business provides an interesting product or service to pilots, flight crews, aircraft, or users of the Catamount Airfield, you should consider listing it here.  To start the listing process, click on the button below
 
Add a business
 

Other Pages about Catamount Airfield

Update a link
 
Copyright © AirNav, LLC. All rights reserved. Privacy Policy  Contact